createdAt,value
2023-04-28T00:00:39.159Z,12.10
2023-04-28T00:03:19.340Z,11.60
2023-04-28T00:05:47.664Z,11.10
2023-04-28T00:08:16.020Z,11.50
2023-04-28T00:10:43.849Z,11.70
2023-04-28T00:13:11.802Z,11.40
2023-04-28T00:15:39.701Z,11.40
2023-04-28T00:18:07.611Z,10.70
2023-04-28T00:20:35.569Z,11.50
2023-04-28T00:23:03.408Z,11.70
2023-04-28T00:25:31.229Z,10.90
2023-04-28T00:27:59.042Z,11.30
2023-04-28T00:30:26.791Z,10.10
2023-04-28T00:32:54.989Z,10.20
2023-04-28T00:35:23.352Z,11.00
2023-04-28T00:37:51.435Z,10.60
2023-04-28T00:40:19.328Z,10.40
2023-04-28T00:42:47.252Z,10.30
2023-04-28T00:45:15.148Z,11.60
2023-04-28T00:47:43.411Z,11.20
2023-04-28T00:50:11.588Z,11.30
2023-04-28T00:52:41.455Z,10.60
2023-04-28T00:55:09.848Z,10.90
2023-04-28T00:57:37.849Z,11.10
2023-04-28T01:00:07.120Z,10.80
2023-04-28T01:02:39.197Z,10.70
2023-04-28T01:05:07.907Z,10.40
2023-04-28T01:07:37.325Z,10.90
2023-04-28T01:10:07.190Z,12.00
2023-04-28T01:12:35.324Z,11.90
2023-04-28T01:15:04.048Z,11.70
2023-04-28T01:17:32.015Z,12.90
2023-04-28T01:20:01.383Z,12.30
2023-04-28T01:22:29.704Z,12.70
2023-04-28T01:25:00.343Z,13.20
2023-04-28T01:27:28.834Z,11.90
2023-04-28T01:29:58.635Z,12.90
2023-04-28T01:32:26.852Z,12.60
2023-04-28T01:34:54.813Z,12.00
2023-04-28T01:37:22.836Z,12.90
2023-04-28T01:39:50.845Z,11.80
2023-04-28T01:42:20.010Z,12.30
2023-04-28T01:44:47.902Z,10.90
2023-04-28T01:47:15.727Z,12.90
2023-04-28T01:49:43.562Z,11.40
2023-04-28T01:52:11.632Z,12.10
2023-04-28T01:54:39.828Z,12.50
2023-04-28T01:57:08.154Z,12.00
2023-04-28T01:59:36.871Z,11.10
2023-04-28T02:02:06.465Z,11.40
2023-04-28T02:04:34.821Z,13.20
2023-04-28T02:07:02.805Z,12.90
2023-04-28T02:09:30.674Z,14.00
2023-04-28T02:12:00.351Z,13.30
2023-04-28T02:14:29.890Z,13.40
2023-04-28T02:16:59.287Z,12.70
2023-04-28T02:19:27.533Z,12.70
2023-04-28T02:21:55.389Z,12.00
2023-04-28T02:24:23.296Z,13.10
2023-04-28T02:26:51.492Z,12.30
2023-04-28T02:29:19.886Z,12.30
2023-04-28T02:31:48.336Z,13.00
2023-04-28T02:34:16.906Z,12.30
2023-04-28T02:36:46.365Z,13.20
2023-04-28T02:39:14.224Z,14.20
2023-04-28T02:41:42.094Z,13.80
2023-04-28T02:44:10.075Z,14.30
2023-04-28T02:46:38.231Z,15.30
2023-04-28T02:49:06.101Z,13.90
2023-04-28T02:51:33.980Z,12.80
2023-04-28T02:54:01.687Z,14.40
2023-04-28T02:56:33.210Z,13.50
2023-04-28T02:59:01.392Z,13.30
2023-04-28T03:01:29.259Z,12.70
2023-04-28T03:03:57.471Z,15.80
2023-04-28T03:06:25.473Z,14.90
2023-04-28T03:08:53.480Z,13.00
2023-04-28T03:11:21.689Z,12.80
2023-04-28T03:13:49.822Z,13.70
2023-04-28T03:16:17.639Z,12.20
2023-04-28T03:18:45.773Z,11.90
2023-04-28T03:21:13.783Z,13.30
2023-04-28T03:23:41.767Z,12.90
2023-04-28T03:26:09.519Z,12.30
2023-04-28T03:28:37.651Z,12.20
2023-04-28T03:31:05.580Z,11.60
2023-04-28T03:33:33.632Z,12.10
2023-04-28T03:36:01.754Z,12.10
2023-04-28T03:38:30.021Z,12.40
2023-04-28T03:40:57.802Z,12.80
2023-04-28T03:43:44.578Z,12.50
2023-04-28T03:46:32.684Z,13.10
2023-04-28T03:49:02.453Z,12.30
2023-04-28T03:51:32.881Z,12.00
2023-04-28T03:57:27.603Z,11.80
2023-04-28T03:59:55.850Z,12.20
2023-04-28T04:02:24.128Z,11.90
2023-04-28T04:04:52.461Z,11.50
2023-04-28T04:07:20.890Z,11.00
2023-04-28T04:09:49.551Z,9.60
2023-04-28T04:12:18.750Z,9.50
2023-04-28T04:14:47.713Z,9.80
2023-04-28T04:17:16.683Z,10.90
2023-04-28T04:19:44.530Z,10.00
2023-04-28T04:22:12.762Z,9.80
2023-04-28T04:24:40.819Z,10.60
2023-04-28T04:27:08.653Z,10.70
2023-04-28T04:29:39.954Z,11.60
2023-04-28T04:32:13.178Z,11.60
2023-04-28T04:34:41.921Z,13.10
2023-04-28T04:37:10.649Z,12.70
2023-04-28T04:39:43.517Z,11.40
2023-04-28T04:42:24.317Z,12.20
2023-04-28T04:45:03.645Z,11.40
2023-04-28T04:47:33.056Z,12.20
2023-04-28T04:50:01.522Z,11.70
2023-04-28T04:52:30.176Z,13.10
2023-04-28T04:54:58.194Z,14.80
2023-04-28T04:57:26.525Z,15.50
2023-04-28T05:00:06.956Z,14.70
2023-04-28T05:02:35.075Z,14.20
2023-04-28T05:05:19.828Z,15.70
2023-04-28T05:07:51.468Z,17.30
2023-04-28T05:10:19.633Z,17.20
2023-04-28T05:12:49.101Z,18.80
2023-04-28T05:15:18.277Z,21.00
2023-04-28T05:17:57.033Z,21.70
2023-04-28T05:20:25.324Z,22.30
2023-04-28T05:22:53.403Z,23.00
2023-04-28T05:25:21.410Z,22.00
2023-04-28T05:27:49.248Z,22.00
2023-04-28T05:30:17.394Z,23.10
2023-04-28T05:32:46.228Z,21.50
2023-04-28T05:35:15.319Z,17.20
2023-04-28T05:37:43.749Z,16.30
2023-04-28T05:40:11.870Z,15.50
2023-04-28T05:42:41.176Z,13.60
2023-04-28T05:45:10.734Z,14.20
2023-04-28T05:47:38.823Z,13.90
2023-04-28T05:50:08.716Z,11.70
2023-04-28T05:52:36.681Z,11.90
2023-04-28T05:55:06.023Z,11.40
2023-04-28T05:57:45.748Z,12.50
2023-04-28T06:00:20.569Z,11.50
2023-04-28T06:02:49.349Z,11.90
2023-04-28T06:05:18.114Z,12.20
2023-04-28T06:07:49.709Z,12.60
2023-04-28T06:10:19.020Z,11.90
2023-04-28T06:12:47.103Z,11.60
2023-04-28T06:15:14.967Z,10.80
2023-04-28T06:17:42.875Z,10.80
2023-04-28T06:20:13.745Z,9.70
2023-04-28T06:22:41.690Z,11.40
2023-04-28T06:25:09.701Z,9.20
2023-04-28T06:27:45.223Z,9.50
2023-04-28T06:30:21.194Z,9.90
2023-04-28T06:32:49.182Z,6.70
2023-04-28T06:35:17.056Z,6.30
2023-04-28T06:37:45.129Z,5.90
2023-04-28T06:40:13.233Z,5.20
2023-04-28T06:42:46.611Z,5.10
2023-04-28T06:45:21.058Z,5.50
2023-04-28T06:47:48.925Z,5.20
2023-04-28T06:50:17.122Z,6.20
2023-04-28T06:52:44.883Z,5.90
2023-04-28T06:55:16.710Z,5.70
2023-04-28T06:57:44.739Z,4.70
2023-04-28T07:00:14.108Z,4.50
2023-04-28T07:02:42.341Z,4.00
2023-04-28T07:05:10.404Z,4.30
2023-04-28T07:07:41.125Z,3.60
2023-04-28T07:10:10.848Z,4.10
2023-04-28T07:12:38.627Z,3.90
2023-04-28T07:15:10.103Z,3.30
2023-04-28T07:17:38.966Z,3.50
2023-04-28T07:20:08.111Z,4.20
2023-04-28T07:22:36.188Z,4.00
2023-04-28T07:25:05.931Z,3.80
2023-04-28T07:27:34.264Z,3.50
2023-04-28T07:30:09.038Z,3.90
2023-04-28T07:32:46.876Z,3.30
2023-04-28T07:35:14.977Z,3.10
2023-04-28T07:37:43.025Z,4.40
2023-04-28T07:40:11.315Z,3.70
2023-04-28T07:42:39.319Z,4.50
2023-04-28T07:45:08.130Z,5.20
2023-04-28T07:47:36.737Z,4.60
2023-04-28T07:50:06.734Z,5.50
2023-04-28T07:52:34.962Z,5.60
2023-04-28T07:55:04.350Z,5.10
2023-04-28T07:57:32.383Z,5.00
2023-04-28T08:00:00.338Z,4.80
2023-04-28T08:02:28.754Z,4.30
2023-04-28T08:04:57.260Z,4.70
2023-04-28T08:07:25.651Z,3.80
2023-04-28T08:09:53.957Z,4.40
2023-04-28T08:12:22.363Z,3.90
2023-04-28T08:14:50.499Z,4.10
2023-04-28T08:17:18.597Z,3.50
2023-04-28T08:19:47.266Z,3.90
2023-04-28T08:22:15.047Z,4.30
2023-04-28T08:24:42.986Z,4.20
2023-04-28T08:27:11.153Z,3.60
2023-04-28T08:29:40.449Z,4.30
2023-04-28T08:32:08.615Z,3.90
2023-04-28T08:34:36.514Z,4.40
2023-04-28T08:37:04.394Z,4.20
2023-04-28T08:39:34.189Z,5.10
2023-04-28T08:42:05.780Z,4.50
2023-04-28T08:44:41.775Z,3.80
2023-04-28T08:47:16.498Z,4.90
2023-04-28T08:49:44.568Z,4.70
2023-04-28T08:52:16.894Z,5.00
2023-04-28T08:54:44.847Z,4.60
2023-04-28T08:57:12.801Z,4.80
2023-04-28T08:59:41.550Z,4.60
2023-04-28T09:02:09.654Z,4.20
2023-04-28T09:04:38.244Z,4.80
2023-04-28T09:07:13.229Z,4.20
2023-04-28T09:09:41.813Z,4.10
2023-04-28T09:12:09.627Z,4.20
2023-04-28T09:14:38.460Z,4.50
2023-04-28T09:17:13.711Z,4.40
2023-04-28T09:19:44.517Z,4.30
2023-04-28T09:22:24.754Z,3.80
2023-04-28T09:24:56.147Z,3.50
2023-04-28T09:27:28.458Z,4.70
2023-04-28T09:29:56.674Z,4.80
2023-04-28T09:32:27.092Z,4.60
2023-04-28T09:34:59.689Z,4.50
2023-04-28T09:37:30.709Z,4.30
2023-04-28T09:40:06.156Z,4.90
2023-04-28T09:42:40.997Z,4.70
2023-04-28T09:45:10.483Z,4.80
2023-04-28T09:47:41.036Z,4.30
2023-04-28T09:50:14.511Z,4.60
2023-04-28T09:52:49.215Z,4.00
2023-04-28T09:55:17.919Z,4.30
2023-04-28T09:57:47.946Z,4.60
2023-04-28T10:00:18.175Z,3.90
2023-04-28T10:02:47.678Z,4.40
2023-04-28T10:05:17.100Z,4.30
2023-04-28T10:07:45.270Z,4.70
2023-04-28T10:10:14.908Z,4.80
2023-04-28T10:12:44.172Z,3.90
2023-04-28T10:15:12.467Z,4.70
2023-04-28T10:17:40.844Z,4.10
2023-04-28T10:20:09.418Z,5.10
2023-04-28T10:23:36.502Z,4.60
2023-04-28T10:26:05.664Z,5.10
2023-04-28T10:28:33.466Z,4.40
2023-04-28T10:31:15.819Z,4.90
2023-04-28T10:33:44.044Z,4.60
2023-04-28T10:36:12.194Z,4.90
2023-04-28T10:39:10.097Z,4.50
2023-04-28T10:41:38.395Z,4.70
2023-04-28T10:44:41.814Z,5.20
2023-04-28T10:47:10.767Z,5.60
2023-04-28T10:50:01.242Z,4.90
2023-04-28T10:52:41.386Z,5.70
2023-04-28T10:55:40.383Z,5.70
2023-04-28T10:58:20.727Z,4.70
2023-04-28T11:00:48.717Z,4.90
2023-04-28T11:03:42.252Z,5.20
2023-04-28T11:06:46.241Z,5.40
2023-04-28T11:09:19.903Z,4.40
2023-04-28T11:12:00.072Z,4.30
2023-04-28T11:14:33.728Z,3.80
2023-04-28T11:17:09.161Z,5.10
2023-04-28T11:19:42.853Z,5.30
2023-04-28T11:22:20.578Z,4.90
2023-04-28T11:24:59.216Z,5.30
2023-04-28T11:27:28.877Z,5.00
2023-04-28T11:29:56.897Z,4.70
2023-04-28T11:32:29.631Z,4.50
2023-04-28T11:34:57.661Z,4.60
2023-04-28T11:37:25.700Z,4.90
2023-04-28T11:39:53.926Z,4.70
2023-04-28T11:42:22.124Z,4.50
2023-04-28T11:44:54.931Z,4.60
2023-04-28T11:47:33.788Z,4.60
2023-04-28T11:50:03.145Z,5.20
2023-04-28T11:52:31.521Z,4.90
2023-04-28T11:55:02.184Z,4.40
2023-04-28T11:57:30.221Z,5.00
2023-04-28T12:00:15.234Z,4.70
2023-04-28T12:02:43.371Z,4.60
2023-04-28T12:05:12.525Z,4.30
2023-04-28T12:07:44.494Z,4.30
2023-04-28T12:10:15.749Z,4.50
2023-04-28T12:12:51.040Z,4.20
2023-04-28T12:15:22.447Z,4.70
2023-04-28T12:17:51.281Z,5.20
2023-04-28T12:20:39.322Z,5.10
2023-04-28T12:23:08.734Z,5.00
2023-04-28T12:25:46.432Z,5.50
2023-04-28T12:28:14.454Z,4.40
2023-04-28T12:30:43.603Z,4.60
2023-04-28T12:33:27.714Z,4.40
2023-04-28T12:35:58.816Z,4.50
2023-04-28T12:38:27.598Z,3.90
2023-04-28T12:40:55.514Z,4.70
2023-04-28T12:43:24.262Z,4.00
2023-04-28T12:45:53.912Z,4.10
2023-04-28T12:48:24.400Z,3.70
2023-04-28T12:50:52.713Z,4.30
2023-04-28T12:53:21.726Z,3.90
2023-04-28T12:55:49.789Z,3.50
2023-04-28T12:58:18.399Z,4.50
2023-04-28T13:00:46.233Z,4.70
2023-04-28T13:03:15.930Z,4.60
2023-04-28T13:05:44.435Z,4.70
2023-04-28T13:08:14.231Z,4.40
2023-04-28T13:10:42.064Z,3.70
2023-04-28T13:13:09.989Z,4.30
2023-04-28T13:15:38.984Z,4.10
2023-04-28T13:18:07.205Z,4.10
2023-04-28T13:20:35.406Z,4.30
2023-04-28T13:23:03.670Z,4.00
2023-04-28T13:25:31.550Z,4.80
2023-04-28T13:27:59.503Z,4.40
2023-04-28T13:30:27.472Z,4.40
2023-04-28T13:32:57.398Z,4.00
2023-04-28T13:35:26.311Z,4.40
2023-04-28T13:38:01.724Z,4.20
2023-04-28T13:40:30.032Z,4.30
2023-04-28T13:42:57.906Z,4.30
2023-04-28T13:45:27.256Z,4.20
2023-04-28T13:47:55.238Z,4.40
2023-04-28T13:50:23.085Z,4.00
2023-04-28T13:52:51.273Z,4.70
2023-04-28T13:55:19.211Z,4.50
2023-04-28T13:57:47.032Z,4.40
2023-04-28T14:00:16.094Z,4.80
2023-04-28T14:02:44.398Z,4.30
2023-04-28T14:05:12.763Z,4.50
2023-04-28T14:07:40.763Z,3.60
2023-04-28T14:10:09.787Z,4.30
2023-04-28T14:12:38.497Z,4.60
2023-04-28T14:15:07.652Z,4.30
2023-04-28T14:17:37.189Z,3.70
2023-04-28T14:20:06.085Z,5.30
2023-04-28T14:22:34.016Z,4.30
2023-04-28T14:25:01.950Z,3.80
2023-04-28T14:27:30.096Z,3.80
2023-04-28T14:29:57.848Z,4.20
2023-04-28T14:32:26.019Z,3.70
2023-04-28T14:34:53.891Z,6.90
2023-04-28T14:37:21.751Z,5.30
2023-04-28T14:39:49.760Z,5.20
2023-04-28T14:42:17.885Z,4.20
2023-04-28T14:44:46.461Z,4.10
2023-04-28T14:47:14.497Z,5.00
2023-04-28T14:49:42.321Z,5.00
2023-04-28T14:52:10.504Z,4.20
2023-04-28T14:54:38.244Z,4.50
2023-04-28T14:57:07.102Z,4.50
2023-04-28T14:59:36.089Z,4.90
2023-04-28T15:02:03.940Z,6.00
2023-04-28T15:04:32.875Z,4.00
2023-04-28T15:07:01.885Z,3.70
2023-04-28T15:09:29.943Z,4.40
2023-04-28T15:11:57.981Z,5.30
2023-04-28T15:14:26.330Z,4.10
2023-04-28T15:16:54.693Z,4.70
2023-04-28T15:19:23.469Z,4.40
2023-04-28T15:21:51.688Z,5.70
2023-04-28T15:24:21.393Z,6.30
2023-04-28T15:26:49.190Z,6.00
2023-04-28T15:29:17.604Z,4.90
2023-04-28T15:31:45.789Z,4.10
2023-04-28T15:34:13.914Z,4.20
2023-04-28T15:36:43.783Z,4.80
2023-04-28T15:39:11.823Z,5.00
2023-04-28T15:41:40.082Z,5.00
2023-04-28T15:44:09.949Z,4.20
2023-04-28T15:46:38.338Z,4.00
2023-04-28T15:49:06.478Z,4.40
2023-04-28T15:51:34.281Z,4.50
2023-04-28T15:54:02.275Z,4.50
2023-04-28T15:56:31.139Z,4.70
2023-04-28T15:58:59.090Z,4.90
2023-04-28T16:01:26.960Z,5.40
2023-04-28T16:03:55.247Z,5.20
2023-04-28T16:06:23.476Z,4.20
2023-04-28T16:08:51.462Z,4.40
2023-04-28T16:11:20.468Z,4.50
2023-04-28T16:13:48.448Z,4.20
2023-04-28T16:16:16.380Z,4.60
2023-04-28T16:18:44.362Z,4.50
2023-04-28T16:21:12.416Z,4.00
2023-04-28T16:23:40.445Z,4.20
2023-04-28T16:26:08.574Z,4.00
2023-04-28T16:28:36.561Z,3.90
2023-04-28T16:31:04.588Z,4.30
2023-04-28T16:33:32.607Z,4.50
2023-04-28T16:36:00.510Z,3.60
2023-04-28T16:38:28.436Z,4.10
2023-04-28T16:40:56.717Z,4.40
2023-04-28T16:43:24.768Z,5.10
2023-04-28T16:45:52.619Z,4.60
2023-04-28T16:48:21.125Z,4.70
2023-04-28T16:50:49.169Z,4.70
2023-04-28T16:53:17.002Z,4.10
2023-04-28T16:55:45.035Z,3.80
2023-04-28T16:58:12.988Z,4.30
2023-04-28T17:00:41.021Z,4.60
2023-04-28T17:03:08.859Z,4.40
2023-04-28T17:05:36.803Z,4.70
2023-04-28T17:08:04.882Z,4.90
2023-04-28T17:10:32.969Z,5.50
2023-04-28T17:13:01.117Z,8.10
2023-04-28T17:15:29.103Z,8.00
2023-04-28T17:17:57.457Z,7.10
2023-04-28T17:20:25.876Z,6.20
2023-04-28T17:22:54.114Z,6.40
2023-04-28T17:25:23.460Z,5.80
2023-04-28T17:27:51.273Z,6.60
2023-04-28T17:30:19.632Z,7.50
2023-04-28T17:32:47.677Z,6.90
2023-04-28T17:35:15.792Z,7.00
2023-04-28T17:37:43.871Z,9.50
2023-04-28T17:40:12.563Z,10.00
2023-04-28T17:42:40.403Z,10.20
2023-04-28T17:45:09.288Z,9.10
2023-04-28T17:47:37.615Z,9.00
2023-04-28T17:50:06.744Z,8.40
2023-04-28T17:52:35.168Z,8.70
2023-04-28T17:55:03.376Z,8.40
2023-04-28T17:57:32.332Z,8.10
2023-04-28T18:00:00.489Z,8.80
2023-04-28T18:02:28.438Z,8.90
2023-04-28T18:04:56.553Z,9.90
2023-04-28T18:07:24.481Z,10.80
2023-04-28T18:09:53.267Z,12.80
2023-04-28T18:12:21.585Z,14.20
2023-04-28T18:14:50.515Z,15.70
2023-04-28T18:17:18.778Z,13.20
2023-04-28T18:19:51.492Z,11.50
2023-04-28T18:22:19.417Z,9.90
2023-04-28T18:24:48.656Z,9.90
2023-04-28T18:27:16.868Z,9.70
2023-04-28T18:29:45.146Z,12.00
2023-04-28T18:32:14.731Z,11.90
2023-04-28T18:34:44.730Z,10.70
2023-04-28T18:37:12.942Z,8.90
2023-04-28T18:39:40.805Z,8.50
2023-04-28T18:42:10.129Z,7.80
2023-04-28T18:44:38.205Z,8.50
2023-04-28T18:47:06.291Z,8.70
2023-04-28T18:49:34.718Z,10.80
2023-04-28T18:52:03.714Z,11.30
2023-04-28T18:54:31.616Z,9.90
2023-04-28T18:56:59.852Z,9.20
2023-04-28T18:59:27.645Z,8.30
2023-04-28T19:01:55.800Z,9.00
2023-04-28T19:04:24.114Z,9.00
2023-04-28T19:06:52.169Z,10.50
2023-04-28T19:09:21.043Z,12.30
2023-04-28T19:11:49.247Z,12.30
2023-04-28T19:14:17.991Z,10.70
2023-04-28T19:16:45.882Z,10.20
2023-04-28T19:19:13.667Z,9.70
2023-04-28T19:21:43.284Z,9.40
2023-04-28T19:24:11.619Z,9.70
2023-04-28T19:26:39.526Z,9.30
2023-04-28T19:29:07.366Z,8.80
2023-04-28T19:31:35.536Z,8.00
2023-04-28T19:34:03.478Z,9.30
2023-04-28T19:36:32.904Z,8.90
2023-04-28T19:39:01.074Z,9.10
2023-04-28T19:41:29.290Z,9.60
2023-04-28T19:43:57.515Z,10.40
2023-04-28T19:46:25.439Z,10.70
2023-04-28T19:48:53.693Z,9.90
2023-04-28T19:51:21.531Z,9.90
2023-04-28T19:53:51.160Z,9.20
2023-04-28T19:56:20.515Z,9.70
2023-04-28T19:58:49.023Z,9.00
2023-04-28T20:01:17.138Z,11.00
2023-04-28T20:03:45.170Z,12.60
2023-04-28T20:06:17.738Z,13.90
2023-04-28T20:08:46.111Z,13.30
2023-04-28T20:11:14.244Z,11.10
2023-04-28T20:13:42.241Z,9.90
2023-04-28T20:16:10.332Z,10.10
2023-04-28T20:18:38.595Z,10.40
2023-04-28T20:21:06.890Z,9.90
2023-04-28T20:23:34.781Z,9.60
2023-04-28T20:26:05.170Z,8.70
2023-04-28T20:28:33.343Z,8.50
2023-04-28T20:31:01.457Z,8.40
2023-04-28T20:33:29.801Z,7.30
2023-04-28T20:35:57.718Z,6.80
2023-04-28T20:38:26.351Z,6.80
2023-04-28T20:40:54.518Z,6.40
2023-04-28T20:43:24.334Z,5.80
2023-04-28T20:45:52.262Z,5.50
2023-04-28T20:48:20.368Z,5.60
2023-04-28T20:50:53.241Z,5.80
2023-04-28T20:53:21.761Z,5.70
2023-04-28T20:55:50.509Z,5.60
2023-04-28T20:58:19.092Z,5.30
2023-04-28T21:00:47.153Z,5.70
2023-04-28T21:03:16.044Z,6.00
2023-04-28T21:05:46.507Z,5.80
2023-04-28T21:08:14.515Z,5.50
2023-04-28T21:10:42.634Z,5.20
2023-04-28T21:13:10.697Z,5.70
2023-04-28T21:15:41.714Z,5.50
2023-04-28T21:18:09.960Z,5.60
2023-04-28T21:20:38.611Z,5.30
2023-04-28T21:23:07.627Z,5.70
2023-04-28T21:25:37.000Z,6.30
2023-04-28T21:28:05.073Z,6.70
2023-04-28T21:30:32.823Z,7.40
2023-04-28T21:33:00.988Z,7.80
2023-04-28T21:35:29.284Z,7.50
2023-04-28T21:37:57.360Z,8.20
2023-04-28T21:40:25.823Z,7.70
2023-04-28T21:42:54.158Z,7.90
2023-04-28T21:45:22.180Z,7.70
2023-04-28T21:47:50.099Z,8.50
2023-04-28T21:50:18.449Z,8.90
2023-04-28T21:52:47.318Z,9.20
2023-04-28T21:55:15.293Z,8.70
2023-04-28T21:57:43.282Z,8.80
2023-04-28T22:00:12.863Z,8.70
2023-04-28T22:02:43.550Z,7.50
2023-04-28T22:05:11.758Z,7.10
2023-04-28T22:07:40.076Z,7.00
2023-04-28T22:10:10.000Z,7.40
2023-04-28T22:12:38.852Z,7.40
2023-04-28T22:15:09.073Z,7.80
2023-04-28T22:17:37.805Z,7.70
2023-04-28T22:20:08.190Z,7.80
2023-04-28T22:22:36.170Z,7.50
2023-04-28T22:25:05.202Z,6.60
2023-04-28T22:27:33.460Z,7.30
2023-04-28T22:30:01.602Z,7.10
2023-04-28T22:32:29.585Z,7.60
2023-04-28T22:34:57.776Z,9.00
2023-04-28T22:37:25.960Z,11.20
2023-04-28T22:39:54.093Z,8.70
2023-04-28T22:42:22.270Z,7.90
2023-04-28T22:44:50.342Z,7.40
2023-04-28T22:47:18.401Z,6.50
2023-04-28T22:49:46.995Z,6.70
2023-04-28T22:52:15.034Z,6.50
2023-04-28T22:54:43.058Z,6.40
2023-04-28T22:57:11.128Z,6.50
2023-04-28T22:59:39.188Z,6.80
2023-04-28T23:02:08.025Z,6.40
2023-04-28T23:04:37.041Z,6.00
2023-04-28T23:07:06.123Z,6.70
2023-04-28T23:09:36.230Z,6.90
2023-04-28T23:12:04.430Z,7.00
2023-04-28T23:14:33.105Z,7.00
2023-04-28T23:17:00.812Z,7.00
2023-04-28T23:19:28.723Z,7.00
2023-04-28T23:21:56.716Z,7.40
2023-04-28T23:24:26.795Z,7.00
2023-04-28T23:26:54.706Z,6.20
2023-04-28T23:29:22.655Z,5.90
2023-04-28T23:31:55.164Z,6.40
2023-04-28T23:34:24.236Z,6.70
2023-04-28T23:36:52.269Z,5.60
2023-04-28T23:39:20.221Z,5.90
2023-04-28T23:41:48.251Z,5.50
2023-04-28T23:44:16.205Z,5.30
2023-04-28T23:46:44.183Z,5.60
2023-04-28T23:49:12.990Z,5.40
2023-04-28T23:51:41.158Z,5.70
2023-04-28T23:54:12.178Z,5.40
2023-04-28T23:56:40.359Z,6.20
2023-04-28T23:59:08.448Z,5.70
